createdAt,value
2017-12-08T00:00:49.728Z,3.50
2017-12-08T00:01:49.759Z,3.00
2017-12-08T00:02:49.788Z,3.30
2017-12-08T00:03:49.819Z,3.50
2017-12-08T00:04:49.857Z,3.60
2017-12-08T00:05:49.882Z,4.60
2017-12-08T00:06:49.910Z,3.70
2017-12-08T00:07:49.941Z,3.70
2017-12-08T00:08:49.974Z,3.00
2017-12-08T00:09:50.004Z,3.50
2017-12-08T00:10:50.034Z,3.10
2017-12-08T00:11:50.064Z,3.60
2017-12-08T00:12:50.096Z,3.50
2017-12-08T00:13:50.126Z,4.00
2017-12-08T00:14:50.155Z,3.00
2017-12-08T00:15:50.185Z,3.80
2017-12-08T00:16:50.217Z,3.90
2017-12-08T00:17:50.247Z,3.70
2017-12-08T00:18:50.278Z,3.50
2017-12-08T00:19:50.308Z,3.30
2017-12-08T00:20:50.337Z,4.70
2017-12-08T00:21:50.368Z,3.40
2017-12-08T00:22:50.400Z,4.20
2017-12-08T00:23:50.430Z,4.20
2017-12-08T00:24:50.461Z,3.40
2017-12-08T00:25:50.491Z,3.50
2017-12-08T00:26:50.519Z,3.90
2017-12-08T00:27:50.550Z,4.50
2017-12-08T00:28:50.582Z,3.60
2017-12-08T00:29:50.612Z,3.70
2017-12-08T00:30:50.640Z,3.30
2017-12-08T00:31:50.671Z,3.70
2017-12-08T00:32:50.706Z,3.90
2017-12-08T00:33:50.732Z,3.50
2017-12-08T00:34:50.762Z,3.40
2017-12-08T00:35:50.793Z,3.70
2017-12-08T00:36:50.823Z,4.90
2017-12-08T00:37:50.854Z,5.20
2017-12-08T00:38:50.884Z,3.10
2017-12-08T00:39:50.913Z,3.90
2017-12-08T00:40:50.945Z,3.20
2017-12-08T00:41:50.974Z,3.40
2017-12-08T00:42:51.004Z,3.40
2017-12-08T00:43:51.035Z,3.60
2017-12-08T00:44:51.064Z,3.80
2017-12-08T00:45:51.095Z,4.00
2017-12-08T00:46:51.125Z,3.40
2017-12-08T00:47:51.156Z,3.30
2017-12-08T00:48:51.186Z,3.30
2017-12-08T00:49:51.216Z,3.10
2017-12-08T00:50:51.246Z,3.00
2017-12-08T00:51:51.278Z,3.70
2017-12-08T00:52:51.310Z,3.40
2017-12-08T00:53:51.336Z,3.40
2017-12-08T00:54:51.367Z,3.00
2017-12-08T00:55:51.396Z,2.90
2017-12-08T00:56:51.428Z,3.30
2017-12-08T00:57:51.462Z,3.90
2017-12-08T00:58:51.486Z,5.50
2017-12-08T00:59:51.517Z,3.20
2017-12-08T01:00:51.548Z,2.80
2017-12-08T01:01:51.578Z,5.20
2017-12-08T01:02:51.609Z,3.10
2017-12-08T01:03:51.638Z,3.30
2017-12-08T01:04:51.669Z,2.90
2017-12-08T01:05:51.698Z,3.10
2017-12-08T01:06:51.729Z,3.00
2017-12-08T01:07:51.758Z,4.10
2017-12-08T01:08:51.789Z,4.20
2017-12-08T01:09:51.827Z,2.60
2017-12-08T01:10:51.849Z,5.00
2017-12-08T01:11:51.879Z,2.50
2017-12-08T01:12:51.911Z,3.30
2017-12-08T01:13:51.940Z,3.00
2017-12-08T01:14:51.970Z,2.40
2017-12-08T01:15:52.000Z,5.00
2017-12-08T01:16:52.029Z,3.00
2017-12-08T01:17:52.068Z,2.80
2017-12-08T01:18:52.091Z,2.30
2017-12-08T01:19:52.120Z,2.80
2017-12-08T01:20:52.151Z,3.00
2017-12-08T01:21:52.180Z,4.60
2017-12-08T01:22:52.211Z,2.60
2017-12-08T01:23:52.241Z,2.70
2017-12-08T01:24:52.272Z,2.80
2017-12-08T01:25:52.302Z,3.10
2017-12-08T01:26:52.330Z,2.60
2017-12-08T01:27:52.362Z,2.80
2017-12-08T01:28:52.391Z,5.30
2017-12-08T01:29:52.422Z,3.10
2017-12-08T01:30:52.452Z,3.10
2017-12-08T01:31:52.483Z,2.60
2017-12-08T01:32:52.512Z,2.80
2017-12-08T01:33:52.543Z,3.20
2017-12-08T01:34:52.573Z,2.70
2017-12-08T01:35:52.604Z,3.10
2017-12-08T01:36:52.635Z,3.30
2017-12-08T01:37:52.664Z,2.70
2017-12-08T01:38:52.695Z,2.60
2017-12-08T01:39:52.727Z,3.50
2017-12-08T01:40:52.756Z,2.60
2017-12-08T01:41:52.785Z,2.50
2017-12-08T01:42:52.816Z,2.70
2017-12-08T01:43:52.846Z,2.60
2017-12-08T01:44:52.876Z,2.70
2017-12-08T01:45:52.907Z,2.50
2017-12-08T01:46:52.937Z,2.40
2017-12-08T01:47:52.967Z,2.70
2017-12-08T01:48:52.997Z,2.40
2017-12-08T01:49:53.030Z,2.00
2017-12-08T01:50:53.058Z,2.50
2017-12-08T01:51:53.089Z,2.70
2017-12-08T01:52:53.118Z,2.40
2017-12-08T01:53:53.149Z,2.70
2017-12-08T01:54:53.179Z,2.70
2017-12-08T01:55:53.209Z,3.00
2017-12-08T01:56:53.239Z,2.50
2017-12-08T01:57:53.270Z,2.40
2017-12-08T01:58:53.299Z,2.40
2017-12-08T01:59:53.329Z,2.80
2017-12-08T02:00:53.359Z,2.60
2017-12-08T02:01:53.391Z,2.60
2017-12-08T02:02:53.420Z,4.20
2017-12-08T02:03:53.450Z,2.50
2017-12-08T02:04:53.481Z,2.70
2017-12-08T02:05:53.511Z,2.60
2017-12-08T02:06:53.548Z,2.90
2017-12-08T02:07:53.575Z,2.20
2017-12-08T02:08:53.603Z,2.60
2017-12-08T02:09:53.639Z,2.80
2017-12-08T02:10:53.662Z,2.70
2017-12-08T02:11:53.692Z,2.80
2017-12-08T02:12:53.724Z,4.70
2017-12-08T02:13:53.754Z,2.70
2017-12-08T02:14:53.782Z,2.90
2017-12-08T02:15:53.812Z,3.80
2017-12-08T02:16:53.844Z,2.90
2017-12-08T02:17:53.874Z,3.40
2017-12-08T02:18:53.905Z,2.90
2017-12-08T02:19:53.934Z,2.70
2017-12-08T02:20:53.965Z,2.80
2017-12-08T02:21:53.995Z,2.80
2017-12-08T02:22:54.024Z,3.40
2017-12-08T02:23:54.055Z,2.70
2017-12-08T02:24:54.087Z,2.80
2017-12-08T02:25:54.116Z,2.70
2017-12-08T02:26:54.144Z,3.70
2017-12-08T02:27:54.174Z,2.60
2017-12-08T02:28:54.206Z,2.30
2017-12-08T02:29:54.237Z,2.60
2017-12-08T02:30:54.266Z,2.40
2017-12-08T02:31:54.296Z,3.00
2017-12-08T02:32:54.326Z,2.90
2017-12-08T02:33:54.357Z,2.40
2017-12-08T02:34:54.387Z,2.90
2017-12-08T02:35:54.417Z,2.40
2017-12-08T02:36:54.446Z,2.60
2017-12-08T02:37:54.478Z,3.30
2017-12-08T02:38:54.507Z,3.00
2017-12-08T02:39:54.539Z,2.60
2017-12-08T02:40:54.569Z,2.60
2017-12-08T02:41:54.597Z,2.30
2017-12-08T02:42:54.629Z,3.40
2017-12-08T02:43:54.657Z,2.60
2017-12-08T02:44:54.688Z,2.70
2017-12-08T02:45:54.720Z,2.40
2017-12-08T02:46:54.749Z,3.30
2017-12-08T02:47:54.780Z,2.30
2017-12-08T02:48:54.812Z,2.40
2017-12-08T02:49:54.839Z,3.90
2017-12-08T02:50:54.870Z,3.10
2017-12-08T02:51:54.901Z,2.20
2017-12-08T02:52:54.934Z,2.70
2017-12-08T02:53:54.961Z,2.80
2017-12-08T02:54:54.989Z,2.60
2017-12-08T02:55:55.020Z,2.40
2017-12-08T02:56:55.051Z,2.60
2017-12-08T02:57:55.081Z,3.70
2017-12-08T02:58:55.111Z,2.60
2017-12-08T02:59:55.141Z,2.40
2017-12-08T03:00:55.171Z,2.30
2017-12-08T03:01:55.201Z,2.50
2017-12-08T03:02:55.232Z,2.40
2017-12-08T03:03:55.261Z,2.00
2017-12-08T03:04:55.292Z,2.20
2017-12-08T03:05:55.322Z,2.50
2017-12-08T03:06:55.351Z,2.10
2017-12-08T03:07:55.382Z,2.50
2017-12-08T03:08:55.413Z,2.60
2017-12-08T03:09:55.442Z,2.80
2017-12-08T03:10:55.471Z,2.70
2017-12-08T03:11:55.500Z,2.20
2017-12-08T03:12:55.532Z,2.00
2017-12-08T03:13:55.565Z,2.10
2017-12-08T03:14:55.593Z,2.30
2017-12-08T03:15:55.621Z,2.50
2017-12-08T03:16:55.653Z,2.20
2017-12-08T03:17:55.682Z,2.90
2017-12-08T03:18:55.712Z,2.50
2017-12-08T03:19:55.743Z,1.90
2017-12-08T03:20:55.773Z,2.40
2017-12-08T03:21:55.804Z,2.90
2017-12-08T03:22:55.833Z,2.90
2017-12-08T03:23:55.862Z,2.80
2017-12-08T03:24:55.894Z,2.60
2017-12-08T03:25:55.925Z,2.90
2017-12-08T03:26:55.954Z,2.30
2017-12-08T03:27:55.984Z,2.60
2017-12-08T03:28:56.013Z,2.30
2017-12-08T03:29:56.043Z,2.50
2017-12-08T03:30:56.074Z,2.90
2017-12-08T03:31:56.104Z,4.50
2017-12-08T03:32:56.134Z,3.00
2017-12-08T03:33:56.163Z,2.50
2017-12-08T03:34:56.194Z,2.70
2017-12-08T03:35:56.227Z,3.50
2017-12-08T03:36:56.254Z,2.80
2017-12-08T03:37:56.284Z,3.50
2017-12-08T03:38:56.313Z,4.80
2017-12-08T03:39:56.343Z,3.10
2017-12-08T03:40:56.374Z,2.80
2017-12-08T03:41:56.405Z,3.50
2017-12-08T03:42:56.435Z,2.80
2017-12-08T03:43:56.465Z,2.70
2017-12-08T03:44:56.494Z,3.10
2017-12-08T03:45:56.524Z,4.90
2017-12-08T03:46:56.554Z,3.40
2017-12-08T03:47:56.586Z,3.20
2017-12-08T03:48:56.615Z,3.70
2017-12-08T03:49:56.646Z,3.40
2017-12-08T03:50:56.675Z,3.30
2017-12-08T03:51:56.705Z,2.90
2017-12-08T03:52:56.735Z,3.20
2017-12-08T03:53:56.766Z,3.60
2017-12-08T03:54:56.797Z,3.10
2017-12-08T03:55:56.826Z,2.90
2017-12-08T03:56:56.855Z,3.30
2017-12-08T03:57:56.886Z,3.50
2017-12-08T03:59:56.947Z,2.90
2017-12-08T04:00:56.977Z,2.80
2017-12-08T04:01:57.008Z,5.30
2017-12-08T04:02:57.036Z,3.30
2017-12-08T04:03:57.067Z,3.10
2017-12-08T04:04:57.098Z,3.70
2017-12-08T04:05:57.129Z,3.40
2017-12-08T04:06:57.157Z,2.80
2017-12-08T04:07:57.187Z,3.20
2017-12-08T04:08:57.218Z,2.70
2017-12-08T04:09:57.249Z,2.90
2017-12-08T04:10:57.279Z,3.40
2017-12-08T04:11:57.308Z,3.20
2017-12-08T04:12:57.339Z,3.40
2017-12-08T04:13:57.368Z,4.20
2017-12-08T04:14:57.398Z,4.00
2017-12-08T04:15:57.429Z,3.50
2017-12-08T04:16:57.459Z,4.10
2017-12-08T04:17:57.489Z,3.70
2017-12-08T04:18:57.519Z,3.60
2017-12-08T04:19:57.549Z,3.10
2017-12-08T04:20:57.582Z,3.30
2017-12-08T04:21:57.610Z,3.20
2017-12-08T04:22:57.639Z,3.90
2017-12-08T04:23:57.669Z,3.80
2017-12-08T04:24:57.699Z,3.50
2017-12-08T04:25:57.728Z,4.90
2017-12-08T04:26:57.759Z,3.70
2017-12-08T04:27:57.791Z,6.00
2017-12-08T04:28:57.820Z,3.70
2017-12-08T04:29:57.849Z,4.20
2017-12-08T04:30:57.879Z,4.30
2017-12-08T04:31:57.912Z,4.60
2017-12-08T04:32:57.940Z,4.70
2017-12-08T04:33:57.970Z,4.20
2017-12-08T04:34:57.999Z,4.40
2017-12-08T04:35:58.029Z,5.20
2017-12-08T04:36:58.059Z,5.20
2017-12-08T04:37:58.089Z,4.60
2017-12-08T04:38:58.119Z,4.90
2017-12-08T04:39:58.149Z,5.70
2017-12-08T04:40:58.179Z,4.80
2017-12-08T04:41:58.209Z,6.10
2017-12-08T04:42:58.237Z,6.30
2017-12-08T04:43:58.267Z,2.40
2017-12-08T04:44:58.298Z,5.20
2017-12-08T04:45:58.328Z,8.00
2017-12-08T04:46:58.357Z,3.50
2017-12-08T04:47:58.386Z,7.80
2017-12-08T04:48:58.418Z,6.50
2017-12-08T04:49:58.446Z,5.90
2017-12-08T04:50:58.477Z,5.50
2017-12-08T04:51:58.504Z,5.90
2017-12-08T04:52:58.534Z,6.10
2017-12-08T04:53:58.563Z,7.00
2017-12-08T04:54:58.591Z,15.10
2017-12-08T04:55:58.622Z,8.10
2017-12-08T04:56:58.650Z,4.60
2017-12-08T04:57:58.679Z,12.00
2017-12-08T04:58:58.707Z,9.60
2017-12-08T04:59:58.736Z,7.10
2017-12-08T05:00:58.768Z,10.60
2017-12-08T05:01:58.794Z,6.20
2017-12-08T05:02:58.822Z,6.10
2017-12-08T05:03:58.851Z,10.10
2017-12-08T05:04:58.880Z,8.10
2017-12-08T05:05:58.909Z,9.90
2017-12-08T05:06:58.937Z,9.30
2017-12-08T05:07:58.966Z,6.70
2017-12-08T05:08:58.996Z,12.60
2017-12-08T05:09:59.024Z,10.90
2017-12-08T05:10:59.052Z,9.10
2017-12-08T05:11:59.080Z,8.40
2017-12-08T05:12:59.110Z,8.60
2017-12-08T05:13:59.138Z,6.70
2017-12-08T05:14:59.166Z,5.20
2017-12-08T05:15:59.197Z,8.50
2017-12-08T05:16:59.224Z,7.60
2017-12-08T05:17:59.253Z,10.70
2017-12-08T05:18:59.281Z,10.40
2017-12-08T05:19:59.312Z,11.50
2017-12-08T05:20:59.339Z,7.00
2017-12-08T05:21:59.368Z,9.80
2017-12-08T05:22:59.399Z,14.00
2017-12-08T05:23:59.426Z,17.00
2017-12-08T05:24:59.454Z,7.70
2017-12-08T05:25:59.483Z,12.20
2017-12-08T05:26:59.511Z,9.30
2017-12-08T05:27:59.541Z,5.20
2017-12-08T05:28:59.568Z,5.50
2017-12-08T05:29:59.599Z,9.20
2017-12-08T05:30:59.626Z,10.50
2017-12-08T05:31:59.656Z,8.20
2017-12-08T05:32:59.684Z,16.00
2017-12-08T05:33:59.715Z,17.10
2017-12-08T05:34:59.742Z,11.40
2017-12-08T05:35:59.771Z,16.80
2017-12-08T05:36:59.800Z,11.60
2017-12-08T05:37:59.829Z,15.80
2017-12-08T05:38:59.857Z,10.70
2017-12-08T05:39:59.886Z,12.70
2017-12-08T05:40:59.916Z,8.30
2017-12-08T05:41:59.945Z,9.90
2017-12-08T05:42:59.974Z,10.20
2017-12-08T05:44:00.008Z,10.90
2017-12-08T05:45:00.032Z,8.20
2017-12-08T05:46:00.061Z,12.10
2017-12-08T05:47:00.089Z,14.50
2017-12-08T05:48:00.119Z,10.20
2017-12-08T05:49:00.148Z,13.90
2017-12-08T05:50:00.177Z,9.90
2017-12-08T05:51:00.206Z,14.10
2017-12-08T05:52:00.235Z,9.90
2017-12-08T05:53:00.264Z,12.00
2017-12-08T05:54:00.294Z,17.20
2017-12-08T05:55:00.321Z,6.30
2017-12-08T05:56:00.350Z,17.60
2017-12-08T05:57:00.393Z,12.70
2017-12-08T05:58:00.409Z,12.10
2017-12-08T05:59:00.436Z,10.40
2017-12-08T06:00:00.467Z,11.10
2017-12-08T06:01:00.496Z,7.30
2017-12-08T06:02:00.525Z,15.00
2017-12-08T06:03:00.553Z,16.80
2017-12-08T06:04:00.583Z,18.40
2017-12-08T06:05:00.612Z,12.40
2017-12-08T06:06:00.641Z,11.50
2017-12-08T06:07:00.668Z,16.60
2017-12-08T06:08:00.698Z,13.10
2017-12-08T06:09:00.728Z,16.70
2017-12-08T06:10:00.757Z,8.90
2017-12-08T06:11:00.785Z,6.90
2017-12-08T06:12:00.814Z,15.20
2017-12-08T06:13:00.844Z,10.20
2017-12-08T06:14:00.872Z,7.70
2017-12-08T06:15:00.900Z,13.00
2017-12-08T06:16:00.931Z,14.20
2017-12-08T06:17:00.960Z,19.30
2017-12-08T06:18:00.990Z,10.60
2017-12-08T06:19:01.017Z,10.90
2017-12-08T06:20:01.046Z,19.90
2017-12-08T06:21:01.075Z,20.10
2017-12-08T06:22:01.105Z,7.60
2017-12-08T06:23:01.133Z,12.30
2017-12-08T06:24:01.162Z,7.70
2017-12-08T06:25:01.192Z,15.60
2017-12-08T06:26:01.219Z,12.60
2017-12-08T06:27:01.249Z,13.00
2017-12-08T06:28:01.279Z,12.40
2017-12-08T06:29:01.307Z,15.10
2017-12-08T06:30:01.336Z,15.20
2017-12-08T06:31:01.364Z,12.10
2017-12-08T06:32:01.394Z,9.60
2017-12-08T06:33:01.423Z,16.60
2017-12-08T06:34:01.452Z,15.80
2017-12-08T06:35:01.481Z,8.60
2017-12-08T06:36:01.510Z,19.50
2017-12-08T06:37:01.539Z,15.40
2017-12-08T06:38:01.569Z,9.00
2017-12-08T06:39:01.596Z,11.20
2017-12-08T06:40:01.626Z,14.20
2017-12-08T06:41:01.655Z,13.40
2017-12-08T06:42:01.686Z,15.50
2017-12-08T06:43:01.713Z,13.10
2017-12-08T06:44:01.740Z,14.90
2017-12-08T06:45:01.778Z,10.40
2017-12-08T06:46:01.803Z,14.40
2017-12-08T06:47:01.830Z,10.90
2017-12-08T06:48:01.857Z,11.00
2017-12-08T06:49:01.886Z,13.20
2017-12-08T06:50:01.916Z,12.90
2017-12-08T06:51:01.944Z,17.80
2017-12-08T06:52:01.976Z,15.00
2017-12-08T06:53:02.003Z,16.50
2017-12-08T06:54:02.033Z,15.40
2017-12-08T06:55:02.060Z,12.70
2017-12-08T06:56:02.089Z,10.50
2017-12-08T06:57:02.118Z,13.90
2017-12-08T06:58:02.148Z,13.30
2017-12-08T06:59:02.175Z,13.20
2017-12-08T07:00:02.205Z,13.20
2017-12-08T07:01:02.234Z,15.90
2017-12-08T07:02:02.263Z,9.10
2017-12-08T07:03:02.292Z,9.00
2017-12-08T07:04:02.330Z,11.50
2017-12-08T07:05:02.358Z,8.60
2017-12-08T07:06:02.378Z,9.50
2017-12-08T07:07:02.406Z,11.00
2017-12-08T07:08:02.436Z,9.10
2017-12-08T07:09:02.465Z,10.90
2017-12-08T07:10:02.494Z,14.60
2017-12-08T07:11:02.530Z,12.70
2017-12-08T07:12:02.554Z,13.50
2017-12-08T07:13:02.581Z,7.50
2017-12-08T07:14:02.610Z,11.90
2017-12-08T07:15:02.638Z,8.70
2017-12-08T07:16:02.667Z,10.10
2017-12-08T07:17:02.696Z,16.10
2017-12-08T07:18:02.747Z,12.50
2017-12-08T07:19:02.754Z,10.80
2017-12-08T07:20:02.783Z,10.90
2017-12-08T07:21:02.812Z,11.10
2017-12-08T07:22:02.841Z,17.80
2017-12-08T07:23:02.876Z,11.20
2017-12-08T07:24:02.898Z,18.60
2017-12-08T07:25:02.928Z,12.20
2017-12-08T07:26:02.958Z,15.80
2017-12-08T07:27:02.985Z,7.30
2017-12-08T07:28:03.013Z,20.80
2017-12-08T07:29:03.047Z,12.20
2017-12-08T07:30:03.075Z,12.40
2017-12-08T07:31:03.101Z,14.00
2017-12-08T07:32:03.130Z,10.90
2017-12-08T07:33:03.159Z,14.00
2017-12-08T07:34:03.188Z,31.50
2017-12-08T07:35:03.216Z,20.80
2017-12-08T07:36:03.245Z,18.40
2017-12-08T07:37:03.274Z,16.20
2017-12-08T07:38:03.303Z,14.70
2017-12-08T07:39:03.331Z,14.70
2017-12-08T07:40:03.359Z,12.40
2017-12-08T07:41:03.390Z,8.60
2017-12-08T07:42:03.419Z,9.00
2017-12-08T07:43:03.447Z,8.00
2017-12-08T07:44:03.475Z,12.30
2017-12-08T07:45:03.504Z,13.90
2017-12-08T07:46:03.533Z,16.10
2017-12-08T07:47:03.562Z,23.30
2017-12-08T07:48:03.590Z,18.20
2017-12-08T07:49:03.620Z,22.70
2017-12-08T07:50:03.650Z,19.90
2017-12-08T07:51:03.677Z,20.60
2017-12-08T07:52:03.706Z,27.60
2017-12-08T07:53:03.735Z,26.00
2017-12-08T07:54:03.763Z,20.20
2017-12-08T07:55:03.792Z,20.80
2017-12-08T07:56:03.821Z,22.70
2017-12-08T07:57:03.850Z,27.80
2017-12-08T07:58:03.881Z,21.60
2017-12-08T07:59:03.906Z,21.40
2017-12-08T08:00:03.935Z,15.80
2017-12-08T08:01:03.965Z,17.00
2017-12-08T08:02:03.994Z,19.20
2017-12-08T08:03:04.022Z,20.50
2017-12-08T08:04:04.051Z,14.00
2017-12-08T08:05:04.080Z,17.30
2017-12-08T08:06:04.110Z,13.90
2017-12-08T08:07:04.138Z,14.60
2017-12-08T08:08:04.165Z,14.90
2017-12-08T08:09:04.194Z,20.60
2017-12-08T08:10:04.225Z,17.40
2017-12-08T08:11:04.255Z,13.00
2017-12-08T08:12:04.282Z,21.80
2017-12-08T08:13:04.312Z,15.30
2017-12-08T08:14:04.340Z,14.30
2017-12-08T08:15:04.368Z,18.60
2017-12-08T08:16:04.397Z,14.10
2017-12-08T08:17:04.427Z,10.60
2017-12-08T08:18:04.455Z,13.60
2017-12-08T08:19:04.485Z,14.80
2017-12-08T08:20:04.515Z,17.70
2017-12-08T08:21:04.544Z,17.50
2017-12-08T08:22:04.573Z,14.80
2017-12-08T08:23:04.601Z,14.70
2017-12-08T08:24:04.631Z,15.60
2017-12-08T08:25:04.661Z,14.80
2017-12-08T08:26:04.689Z,12.80
2017-12-08T08:27:04.721Z,13.00
2017-12-08T08:28:04.749Z,12.90
2017-12-08T08:29:04.778Z,18.90
2017-12-08T08:30:04.807Z,12.70
2017-12-08T08:31:04.835Z,16.30
2017-12-08T08:32:04.864Z,20.30
2017-12-08T08:33:04.933Z,21.40
2017-12-08T08:34:04.923Z,17.40
2017-12-08T08:35:04.953Z,20.90
2017-12-08T08:36:04.981Z,18.40
2017-12-08T08:37:05.011Z,13.10
2017-12-08T08:38:05.040Z,16.90
2017-12-08T08:39:05.073Z,19.50
2017-12-08T08:40:05.098Z,18.10
2017-12-08T08:41:05.127Z,20.40
2017-12-08T08:42:05.157Z,16.50
2017-12-08T08:43:05.188Z,15.70
2017-12-08T08:44:05.214Z,22.80
2017-12-08T08:45:05.246Z,16.90
2017-12-08T08:46:05.278Z,30.50
2017-12-08T08:47:05.302Z,20.70
2017-12-08T08:48:05.332Z,22.40
2017-12-08T08:49:05.361Z,16.90
2017-12-08T08:50:05.390Z,30.70
2017-12-08T08:51:05.419Z,19.30
2017-12-08T08:52:05.449Z,25.60
2017-12-08T08:53:05.480Z,28.10
2017-12-08T08:54:05.507Z,20.20
2017-12-08T08:55:05.536Z,21.90
2017-12-08T08:56:05.566Z,17.50
2017-12-08T08:57:05.594Z,20.50
2017-12-08T08:58:05.624Z,21.80
2017-12-08T08:59:05.653Z,25.40
2017-12-08T09:00:05.683Z,23.00
2017-12-08T09:01:05.713Z,28.90
2017-12-08T09:02:05.742Z,29.50
2017-12-08T09:03:05.771Z,31.40
2017-12-08T09:04:05.799Z,25.70
2017-12-08T09:05:05.831Z,23.40
2017-12-08T09:06:05.862Z,20.70
2017-12-08T09:07:05.892Z,21.00
2017-12-08T09:08:05.923Z,20.70
2017-12-08T09:09:05.954Z,17.40
2017-12-08T09:10:05.986Z,13.10
2017-12-08T09:11:06.017Z,11.60
2017-12-08T09:12:06.051Z,12.80
2017-12-08T09:13:06.082Z,15.90
2017-12-08T09:14:06.116Z,13.10
2017-12-08T09:15:06.150Z,23.80
2017-12-08T09:16:06.182Z,18.60
2017-12-08T09:17:06.246Z,13.80
2017-12-08T09:18:06.250Z,15.50
2017-12-08T09:19:06.286Z,21.70
2017-12-08T09:20:06.320Z,17.80
2017-12-08T09:21:06.357Z,17.50
2017-12-08T09:22:06.399Z,12.20
2017-12-08T09:23:06.428Z,12.30
2017-12-08T09:24:06.464Z,17.80
2017-12-08T09:25:06.502Z,17.00
2017-12-08T09:26:06.539Z,11.40
2017-12-08T09:27:06.576Z,14.80
2017-12-08T09:28:06.613Z,8.10
2017-12-08T09:29:06.650Z,19.60
2017-12-08T09:30:06.689Z,12.30
2017-12-08T09:31:06.728Z,13.20
2017-12-08T09:32:06.768Z,14.30
2017-12-08T09:33:06.806Z,13.90
2017-12-08T09:34:06.903Z,14.70
2017-12-08T09:35:06.885Z,22.80
2017-12-08T09:36:06.924Z,26.00
2017-12-08T09:37:06.965Z,18.50
2017-12-08T09:38:07.005Z,13.10
2017-12-08T09:39:07.045Z,14.80
2017-12-08T09:40:07.085Z,22.90
2017-12-08T09:41:07.125Z,20.70
2017-12-08T09:42:07.166Z,17.80
2017-12-08T09:43:07.207Z,10.00
2017-12-08T09:44:07.245Z,26.00
2017-12-08T09:45:07.286Z,17.60
2017-12-08T09:46:07.327Z,10.50
2017-12-08T09:47:07.365Z,15.10
2017-12-08T09:48:07.407Z,12.00
2017-12-08T09:49:07.444Z,11.30
2017-12-08T09:50:07.484Z,14.20
2017-12-08T09:51:07.522Z,13.40
2017-12-08T09:52:07.561Z,11.80
2017-12-08T09:53:07.600Z,16.50
2017-12-08T09:54:07.640Z,13.30
2017-12-08T09:55:07.676Z,10.50
2017-12-08T09:56:07.714Z,11.40
2017-12-08T09:57:07.752Z,11.90
2017-12-08T09:58:07.789Z,10.10
2017-12-08T09:59:07.826Z,8.40
2017-12-08T10:00:07.863Z,12.80
2017-12-08T10:01:07.900Z,17.00
2017-12-08T10:02:07.936Z,15.40
2017-12-08T10:03:07.971Z,13.40
2017-12-08T10:04:08.008Z,14.40
2017-12-08T10:05:08.043Z,12.70
2017-12-08T10:06:08.078Z,12.60
2017-12-08T10:07:08.113Z,11.40
2017-12-08T10:08:08.148Z,10.60
2017-12-08T10:09:08.184Z,15.50
2017-12-08T10:10:08.268Z,13.00
2017-12-08T10:11:08.251Z,12.80
2017-12-08T10:12:08.286Z,12.70
2017-12-08T10:13:08.320Z,17.40
2017-12-08T10:14:08.354Z,20.40
2017-12-08T10:15:08.388Z,9.40
2017-12-08T10:16:08.421Z,10.10
2017-12-08T10:17:08.453Z,11.00
2017-12-08T10:18:08.487Z,11.20
2017-12-08T10:19:08.521Z,7.90
2017-12-08T10:20:08.555Z,9.10
2017-12-08T10:21:08.587Z,11.50
2017-12-08T10:22:08.621Z,8.30
2017-12-08T10:23:08.653Z,8.00
2017-12-08T10:24:08.686Z,8.80
2017-12-08T10:25:08.722Z,9.50
2017-12-08T10:26:08.752Z,12.80
2017-12-08T10:27:08.782Z,12.20
2017-12-08T10:28:08.817Z,9.50
2017-12-08T10:29:08.849Z,8.50
2017-12-08T10:30:08.881Z,8.80
2017-12-08T10:31:08.913Z,13.50
2017-12-08T10:32:08.946Z,9.20
2017-12-08T10:33:08.977Z,15.10
2017-12-08T10:34:09.014Z,11.70
2017-12-08T10:35:09.042Z,10.80
2017-12-08T10:36:09.073Z,11.00
2017-12-08T10:37:09.105Z,15.10
2017-12-08T10:38:09.138Z,11.00
2017-12-08T10:39:09.169Z,15.40
2017-12-08T10:40:09.201Z,15.70
2017-12-08T10:41:09.233Z,11.30
2017-12-08T10:42:09.265Z,15.40
2017-12-08T10:43:09.295Z,12.30
2017-12-08T10:44:09.326Z,8.70
2017-12-08T10:45:09.360Z,7.50
2017-12-08T10:46:09.391Z,10.70
2017-12-08T10:47:09.422Z,12.30
2017-12-08T10:48:09.454Z,5.50
2017-12-08T10:49:09.487Z,7.60
2017-12-08T10:50:09.519Z,9.00
2017-12-08T10:51:09.549Z,6.80
2017-12-08T10:52:09.581Z,8.80
2017-12-08T10:53:09.615Z,10.70
2017-12-08T10:54:09.644Z,9.20
2017-12-08T10:55:09.676Z,11.10
2017-12-08T10:56:09.709Z,15.00
2017-12-08T10:57:09.742Z,12.20
2017-12-08T10:58:09.775Z,13.00
2017-12-08T10:59:09.801Z,9.90
2017-12-08T11:00:09.833Z,9.20
2017-12-08T11:01:09.865Z,8.50
2017-12-08T11:02:09.899Z,11.50
2017-12-08T11:03:09.927Z,6.80
2017-12-08T11:04:09.959Z,6.70
2017-12-08T11:05:09.990Z,7.80
2017-12-08T11:06:10.022Z,8.50
2017-12-08T11:07:10.052Z,10.30
2017-12-08T11:08:10.084Z,9.00
2017-12-08T11:09:10.115Z,8.70
2017-12-08T11:10:10.147Z,7.00
2017-12-08T11:11:10.177Z,8.70
2017-12-08T11:12:10.207Z,5.20
2017-12-08T11:13:10.240Z,10.20
2017-12-08T11:14:10.271Z,8.40
2017-12-08T11:15:10.302Z,9.20
2017-12-08T11:16:10.333Z,10.00
2017-12-08T11:17:10.364Z,10.40
2017-12-08T11:18:10.396Z,13.60
2017-12-08T11:19:10.428Z,13.30
2017-12-08T11:20:10.457Z,10.50
2017-12-08T11:21:10.488Z,7.40
2017-12-08T11:22:10.519Z,13.20
2017-12-08T11:23:10.549Z,9.00
2017-12-08T11:24:10.580Z,9.00
2017-12-08T11:25:10.611Z,7.90
2017-12-08T11:26:10.642Z,9.70
2017-12-08T11:27:10.672Z,8.10
2017-12-08T11:28:10.701Z,9.90
2017-12-08T11:29:10.733Z,12.70
2017-12-08T11:30:10.764Z,8.90
2017-12-08T11:31:10.794Z,9.50
2017-12-08T11:32:10.824Z,7.20
2017-12-08T11:33:10.855Z,10.90
2017-12-08T11:34:10.886Z,12.10
2017-12-08T11:35:10.915Z,7.30
2017-12-08T11:36:10.948Z,11.10
2017-12-08T11:37:10.978Z,8.00
2017-12-08T11:38:11.009Z,12.50
2017-12-08T11:39:11.039Z,13.80
2017-12-08T11:40:11.071Z,11.30
2017-12-08T11:41:11.101Z,9.90
2017-12-08T11:42:11.132Z,7.90
2017-12-08T11:43:11.162Z,12.80
2017-12-08T11:44:11.195Z,7.90
2017-12-08T11:45:11.224Z,13.60
2017-12-08T11:46:11.255Z,11.50
2017-12-08T11:47:11.284Z,9.40
2017-12-08T11:48:11.315Z,8.40
2017-12-08T11:49:11.347Z,7.90
2017-12-08T11:50:11.376Z,12.50
2017-12-08T11:51:11.405Z,6.30
2017-12-08T11:52:11.435Z,12.70
2017-12-08T11:53:11.466Z,6.70
2017-12-08T11:54:11.497Z,4.50
2017-12-08T11:55:11.525Z,5.10
2017-12-08T11:56:11.555Z,10.50
2017-12-08T11:57:11.585Z,6.00
2017-12-08T11:58:11.614Z,5.00
2017-12-08T11:59:11.649Z,6.60
2017-12-08T12:00:11.673Z,3.50
2017-12-08T12:01:11.702Z,3.60
2017-12-08T12:02:11.733Z,5.90
2017-12-08T12:03:11.761Z,9.80
2017-12-08T12:04:11.790Z,7.00
2017-12-08T12:05:11.822Z,6.10
2017-12-08T12:06:11.851Z,5.30
2017-12-08T12:07:11.877Z,3.70
2017-12-08T12:08:11.913Z,3.50
2017-12-08T12:09:11.936Z,5.90
2017-12-08T12:10:11.969Z,2.40
2017-12-08T12:11:11.994Z,3.10
2017-12-08T12:12:12.023Z,4.70
2017-12-08T12:13:12.052Z,2.20
2017-12-08T12:14:12.081Z,3.50
2017-12-08T12:15:12.110Z,4.50
2017-12-08T12:16:12.140Z,3.00
2017-12-08T12:17:12.168Z,6.00
2017-12-08T12:18:12.196Z,4.40
2017-12-08T12:19:12.227Z,4.60
2017-12-08T12:20:12.260Z,3.70
2017-12-08T12:21:12.284Z,6.20
2017-12-08T12:22:12.312Z,4.30
2017-12-08T12:23:12.341Z,3.40
2017-12-08T12:24:12.369Z,3.40
2017-12-08T12:25:12.399Z,5.30
2017-12-08T12:26:12.431Z,2.80
2017-12-08T12:27:12.456Z,3.40
2017-12-08T12:28:12.485Z,2.50
2017-12-08T12:29:12.515Z,4.50
2017-12-08T12:30:12.543Z,3.20
2017-12-08T12:31:12.572Z,3.50
2017-12-08T12:32:12.601Z,6.00
2017-12-08T12:33:12.630Z,5.30
2017-12-08T12:34:12.659Z,3.30
2017-12-08T12:35:12.686Z,3.80
2017-12-08T12:36:12.716Z,2.10
2017-12-08T12:37:12.745Z,3.40
2017-12-08T12:38:12.781Z,6.50
2017-12-08T12:39:12.803Z,4.30
2017-12-08T12:40:12.833Z,7.40
2017-12-08T12:41:12.861Z,5.90
2017-12-08T12:42:12.890Z,6.20
2017-12-08T12:43:12.919Z,4.30
2017-12-08T12:44:12.948Z,5.80
2017-12-08T12:45:12.977Z,4.00
2017-12-08T12:46:13.006Z,2.80
2017-12-08T12:47:13.034Z,5.70
2017-12-08T12:48:13.063Z,3.30
2017-12-08T12:49:13.093Z,3.60
2017-12-08T12:50:13.122Z,3.30
2017-12-08T12:51:13.151Z,4.50
2017-12-08T12:52:13.181Z,3.50
2017-12-08T12:53:13.210Z,3.50
2017-12-08T12:54:13.241Z,2.70
2017-12-08T12:55:13.268Z,4.90
2017-12-08T12:56:13.298Z,3.70
2017-12-08T12:57:13.327Z,3.70
2017-12-08T12:58:13.356Z,5.10
2017-12-08T12:59:13.386Z,3.30
2017-12-08T13:00:13.414Z,3.70
2017-12-08T13:01:13.445Z,3.70
2017-12-08T13:02:13.474Z,5.80
2017-12-08T13:03:13.504Z,8.80
2017-12-08T13:04:13.531Z,6.50
2017-12-08T13:05:13.562Z,5.50
2017-12-08T13:06:13.593Z,7.10
2017-12-08T13:07:13.621Z,5.50
2017-12-08T13:08:13.650Z,5.60
2017-12-08T13:09:13.679Z,5.70
2017-12-08T13:10:13.806Z,4.30